createdAt,value
2023-05-01T00:00:42.013Z,58.92
2023-05-01T00:04:42.746Z,58.87
2023-05-01T00:08:41.902Z,58.88
2023-05-01T00:12:41.784Z,58.92
2023-05-01T00:16:41.962Z,59.10
2023-05-01T00:20:41.970Z,59.04
2023-05-01T00:24:41.855Z,59.20
2023-05-01T00:28:41.776Z,59.32
2023-05-01T00:32:41.921Z,59.41
2023-05-01T00:36:42.145Z,59.51
2023-05-01T00:40:42.841Z,59.58
2023-05-01T00:52:42.110Z,59.79
2023-05-01T00:56:42.289Z,59.82
2023-05-01T01:00:42.156Z,60.16
2023-05-01T01:04:44.448Z,60.41
2023-05-01T01:08:54.371Z,60.35
2023-05-01T01:12:50.073Z,60.31
2023-05-01T01:16:47.691Z,60.35
2023-05-01T01:20:45.680Z,60.47
2023-05-01T01:24:56.542Z,60.68
2023-05-01T01:28:59.862Z,60.54
2023-05-01T01:33:00.461Z,60.68
2023-05-01T01:36:48.432Z,60.54
2023-05-01T01:40:49.677Z,60.94
2023-05-01T01:44:48.168Z,60.83
2023-05-01T01:48:48.012Z,61.19
2023-05-01T01:52:46.565Z,61.63
2023-05-01T01:56:45.153Z,61.71
2023-05-01T02:00:44.477Z,62.15
2023-05-01T02:04:44.019Z,61.95
2023-05-01T02:08:44.736Z,62.83
2023-05-01T02:12:45.018Z,62.81
2023-05-01T02:16:43.782Z,62.85
2023-05-01T02:20:43.452Z,63.02
2023-05-01T02:24:43.754Z,62.96
2023-05-01T02:28:42.238Z,63.44
2023-05-01T02:32:42.230Z,63.62
2023-05-01T02:36:42.436Z,63.98
2023-05-01T02:40:48.362Z,64.15
2023-05-01T02:44:48.129Z,64.38
2023-05-01T02:48:42.562Z,64.53
2023-05-01T02:52:43.153Z,64.68
2023-05-01T02:56:42.342Z,64.89
2023-05-01T03:00:43.632Z,64.97
2023-05-01T03:04:42.826Z,65.14
2023-05-01T03:08:42.684Z,65.33
2023-05-01T03:12:43.226Z,65.36
2023-05-01T03:16:42.624Z,65.35
2023-05-01T03:20:50.427Z,65.39
2023-05-01T03:24:42.614Z,65.64
2023-05-01T03:28:42.283Z,65.50
2023-05-01T03:32:42.509Z,65.94
2023-05-01T03:36:42.312Z,66.13
2023-05-01T03:40:42.456Z,66.11
2023-05-01T03:44:42.435Z,65.89
2023-05-01T03:52:42.599Z,65.77
2023-05-01T03:56:42.335Z,65.93
2023-05-01T04:00:42.657Z,66.07
2023-05-01T04:04:42.466Z,66.31
2023-05-01T04:08:42.557Z,66.18
2023-05-01T04:12:42.427Z,66.23
2023-05-01T04:16:42.657Z,65.72
2023-05-01T04:20:42.418Z,66.00
2023-05-01T04:24:42.696Z,65.70
2023-05-01T04:28:42.736Z,66.11
2023-05-01T04:32:42.797Z,66.23
2023-05-01T04:36:42.449Z,66.40
2023-05-01T04:40:42.655Z,66.37
2023-05-01T04:44:42.614Z,66.36
2023-05-01T04:48:43.277Z,66.35
2023-05-01T04:52:42.563Z,66.15
2023-05-01T04:56:42.792Z,66.46
2023-05-01T05:00:42.532Z,66.32
2023-05-01T05:04:42.586Z,66.41
2023-05-01T05:08:42.686Z,66.77
2023-05-01T05:20:43.371Z,66.36
2023-05-01T05:24:43.420Z,66.71
2023-05-01T05:28:42.845Z,66.24
2023-05-01T05:32:43.392Z,66.61
2023-05-01T05:36:42.771Z,66.73
2023-05-01T05:40:42.615Z,66.72
2023-05-01T05:44:42.824Z,66.60
2023-05-01T05:52:43.107Z,66.74
2023-05-01T05:56:42.770Z,66.54
2023-05-01T06:00:43.780Z,66.73
2023-05-01T06:04:42.916Z,66.50
2023-05-01T06:12:45.266Z,66.94
2023-05-01T06:16:42.801Z,66.75
2023-05-01T06:20:43.150Z,66.58
2023-05-01T06:24:42.853Z,66.70
2023-05-01T06:28:42.854Z,66.54
2023-05-01T06:32:43.276Z,66.64
2023-05-01T06:36:42.847Z,66.58
2023-05-01T06:40:45.943Z,66.61
2023-05-01T06:48:43.006Z,66.58
2023-05-01T06:56:43.163Z,67.14
2023-05-01T07:00:42.879Z,67.12
2023-05-01T07:04:44.265Z,67.13
2023-05-01T07:08:42.871Z,67.03
2023-05-01T07:12:42.996Z,67.07
2023-05-01T07:16:42.929Z,67.09
2023-05-01T07:24:43.296Z,67.22
2023-05-01T07:28:43.060Z,67.10
2023-05-01T07:32:43.277Z,66.65
2023-05-01T07:36:43.151Z,66.82
2023-05-01T07:40:43.324Z,66.93
2023-05-01T07:44:42.991Z,67.09
2023-05-01T07:52:43.616Z,67.24
2023-05-01T08:00:44.351Z,67.03
2023-05-01T08:04:45.044Z,66.83
2023-05-01T08:08:43.547Z,66.93
2023-05-01T08:12:43.171Z,67.63
2023-05-01T08:16:43.701Z,66.47
2023-05-01T08:20:43.561Z,66.58
2023-05-01T08:24:43.407Z,66.64
2023-05-01T08:28:43.145Z,66.27
2023-05-01T08:36:43.503Z,66.10
2023-05-01T08:40:50.217Z,65.85
2023-05-01T08:44:45.477Z,65.68
2023-05-01T08:48:44.655Z,65.72
2023-05-01T08:52:43.602Z,65.79
2023-05-01T08:56:46.309Z,65.98
2023-05-01T09:00:45.626Z,65.64
2023-05-01T09:04:43.217Z,65.79
2023-05-01T09:08:43.519Z,65.59
2023-05-01T09:12:48.164Z,65.15
2023-05-01T09:16:43.520Z,65.18
2023-05-01T09:20:43.233Z,65.02
2023-05-01T09:24:43.644Z,65.15
2023-05-01T09:28:44.937Z,64.87
2023-05-01T09:32:43.502Z,64.55
2023-05-01T09:36:46.015Z,64.96
2023-05-01T09:40:44.115Z,64.29
2023-05-01T09:44:44.132Z,64.34
2023-05-01T09:48:53.617Z,64.05
2023-05-01T09:56:46.579Z,63.80
2023-05-01T10:00:47.340Z,63.53
2023-05-01T10:04:43.666Z,63.35
2023-05-01T10:08:45.395Z,62.90
2023-05-01T10:12:43.600Z,63.35
2023-05-01T10:16:43.879Z,63.46
2023-05-01T10:20:43.621Z,63.30
2023-05-01T10:24:45.065Z,63.11
2023-05-01T10:28:46.893Z,62.11
2023-05-01T10:32:43.585Z,61.34
2023-05-01T10:36:46.931Z,60.36
2023-05-01T10:40:46.061Z,60.75
2023-05-01T10:44:46.833Z,60.17
2023-05-01T10:48:55.106Z,59.95
2023-05-01T10:53:03.371Z,58.54
2023-05-01T10:56:43.986Z,58.98
2023-05-01T11:00:43.523Z,58.98
2023-05-01T11:04:48.220Z,59.32
2023-05-01T11:08:45.559Z,58.11
2023-05-01T11:12:49.925Z,57.98
2023-05-01T11:16:45.994Z,58.04
2023-05-01T11:20:46.554Z,57.79
2023-05-01T11:24:43.911Z,58.53
2023-05-01T11:28:43.827Z,57.83
2023-05-01T11:32:45.238Z,57.48
2023-05-01T11:36:47.574Z,57.39
2023-05-01T11:40:44.437Z,56.88
2023-05-01T11:45:03.437Z,57.39
2023-05-01T11:48:48.318Z,57.47
2023-05-01T11:52:45.587Z,58.04
2023-05-01T11:56:43.755Z,57.99
2023-05-01T12:00:44.056Z,57.75
2023-05-01T12:04:43.895Z,57.22
2023-05-01T12:08:47.554Z,57.59
2023-05-01T12:12:43.921Z,57.57
2023-05-01T12:16:44.696Z,57.24
2023-05-01T12:20:46.202Z,57.17
2023-05-01T12:24:50.693Z,56.28
2023-05-01T12:28:54.727Z,55.93
2023-05-01T12:32:44.123Z,56.21
2023-05-01T12:36:52.897Z,56.29
2023-05-01T12:40:51.327Z,56.16
2023-05-01T12:44:44.023Z,56.39
2023-05-01T12:48:44.278Z,55.98
2023-05-01T12:52:43.961Z,55.95
2023-05-01T12:56:43.846Z,55.63
2023-05-01T13:00:45.417Z,55.72
2023-05-01T13:04:45.350Z,55.92
2023-05-01T13:08:44.260Z,56.23
2023-05-01T13:12:45.216Z,56.32
2023-05-01T13:16:45.374Z,56.30
2023-05-01T13:20:44.066Z,56.05
2023-05-01T13:24:43.997Z,55.55
2023-05-01T13:28:44.473Z,55.23
2023-05-01T13:32:45.264Z,55.19
2023-05-01T13:36:45.241Z,55.25
2023-05-01T13:40:44.548Z,55.26
2023-05-01T13:44:49.972Z,55.20
2023-05-01T13:48:44.923Z,55.10
2023-05-01T13:52:44.877Z,54.99
2023-05-01T13:56:44.301Z,54.81
2023-05-01T14:00:44.276Z,54.43
2023-05-01T14:04:44.107Z,54.55
2023-05-01T14:08:46.976Z,53.92
2023-05-01T14:12:44.705Z,53.23
2023-05-01T14:16:46.763Z,52.91
2023-05-01T14:20:46.436Z,52.66
2023-05-01T14:24:44.998Z,52.52
2023-05-01T14:28:45.696Z,52.70
2023-05-01T14:32:44.583Z,53.06
2023-05-01T14:36:44.418Z,53.67
2023-05-01T14:40:45.447Z,53.93
2023-05-01T14:44:44.298Z,54.18
2023-05-01T14:48:44.407Z,54.35
2023-05-01T14:52:44.528Z,54.38
2023-05-01T14:56:45.537Z,54.32
2023-05-01T15:00:44.291Z,54.19
2023-05-01T15:04:44.374Z,54.23
2023-05-01T15:12:44.670Z,54.42
2023-05-01T15:16:44.360Z,54.29
2023-05-01T15:20:45.397Z,54.55
2023-05-01T15:24:45.025Z,54.52
2023-05-01T15:28:44.595Z,54.32
2023-05-01T15:32:44.508Z,53.83
2023-05-01T15:36:44.513Z,53.72
2023-05-01T15:40:44.976Z,53.51
2023-05-01T15:44:44.489Z,53.40
2023-05-01T15:48:45.371Z,52.53
2023-05-01T15:52:45.044Z,51.87
2023-05-01T15:56:44.494Z,51.54
2023-05-01T16:00:44.853Z,51.39
2023-05-01T16:04:46.706Z,51.33
2023-05-01T16:08:44.552Z,51.30
2023-05-01T16:12:45.392Z,51.57
2023-05-01T16:16:45.117Z,51.49
2023-05-01T16:20:44.902Z,51.37
2023-05-01T16:24:44.768Z,50.62
2023-05-01T16:28:44.582Z,49.90
2023-05-01T16:32:45.273Z,49.34
2023-05-01T16:36:45.950Z,49.08
2023-05-01T16:40:46.968Z,48.59
2023-05-01T16:44:44.767Z,47.73
2023-05-01T16:48:45.095Z,46.93
2023-05-01T16:52:44.601Z,45.86
2023-05-01T16:56:44.791Z,45.75
2023-05-01T17:00:44.553Z,45.65
2023-05-01T17:04:45.310Z,45.11
2023-05-01T17:08:44.660Z,44.88
2023-05-01T17:12:44.806Z,45.34
2023-05-01T17:16:45.109Z,45.28
2023-05-01T17:20:44.974Z,44.63
2023-05-01T17:24:44.955Z,44.25
2023-05-01T17:28:44.899Z,43.75
2023-05-01T17:32:44.833Z,43.51
2023-05-01T17:36:44.862Z,42.98
2023-05-01T17:44:44.970Z,42.62
2023-05-01T17:48:44.669Z,41.85
2023-05-01T17:52:44.871Z,41.38
2023-05-01T17:56:44.842Z,41.13
2023-05-01T18:00:44.747Z,40.82
2023-05-01T18:04:45.886Z,41.50
2023-05-01T18:08:44.911Z,42.07
2023-05-01T18:12:46.026Z,43.20
2023-05-01T18:16:45.507Z,43.40
2023-05-01T18:20:44.761Z,43.84
2023-05-01T18:24:45.371Z,44.74
2023-05-01T18:28:44.857Z,45.82
2023-05-01T18:32:48.609Z,46.82
2023-05-01T18:36:46.540Z,47.16
2023-05-01T18:40:46.612Z,47.54
2023-05-01T18:44:45.247Z,48.00
2023-05-01T18:48:45.270Z,48.57
2023-05-01T18:52:44.831Z,49.37
2023-05-01T18:56:45.304Z,49.13
2023-05-01T19:00:45.051Z,49.30
2023-05-01T19:04:56.898Z,49.24
2023-05-01T19:08:45.144Z,49.57
2023-05-01T19:12:45.225Z,49.67
2023-05-01T19:16:45.262Z,50.14
2023-05-01T19:20:45.058Z,50.79
2023-05-01T19:24:45.133Z,51.20
2023-05-01T19:28:45.151Z,51.17
2023-05-01T19:32:45.583Z,51.00
2023-05-01T19:36:45.210Z,50.85
2023-05-01T19:40:45.133Z,50.94
2023-05-01T19:44:45.243Z,51.24
2023-05-01T19:48:45.086Z,51.62
2023-05-01T19:52:45.190Z,52.02
2023-05-01T19:56:45.784Z,52.48
2023-05-01T20:00:45.220Z,52.94
2023-05-01T20:04:45.624Z,53.20
2023-05-01T20:08:46.190Z,53.35
2023-05-01T20:12:45.155Z,53.44
2023-05-01T20:16:45.314Z,53.57
2023-05-01T20:20:45.203Z,53.85
2023-05-01T20:24:45.795Z,54.04
2023-05-01T20:28:45.961Z,54.17
2023-05-01T20:32:45.484Z,54.42
2023-05-01T20:36:45.886Z,54.56
2023-05-01T20:40:45.383Z,54.65
2023-05-01T20:44:45.231Z,54.90
2023-05-01T20:48:46.386Z,55.17
2023-05-01T20:52:45.316Z,55.30
2023-05-01T20:56:45.432Z,55.45
2023-05-01T21:00:45.268Z,55.74
2023-05-01T21:04:45.423Z,56.22
2023-05-01T21:08:46.320Z,56.53
2023-05-01T21:12:45.507Z,56.51
2023-05-01T21:16:45.375Z,56.63
2023-05-01T21:20:47.696Z,56.99
2023-05-01T21:28:45.704Z,56.81
2023-05-01T21:32:46.091Z,56.86
2023-05-01T21:36:45.438Z,57.01
2023-05-01T21:40:45.479Z,56.92
2023-05-01T21:44:45.468Z,57.25
2023-05-01T21:48:48.790Z,57.56
2023-05-01T21:52:49.987Z,57.64
2023-05-01T21:56:47.209Z,57.76
2023-05-01T22:00:45.946Z,57.93
2023-05-01T22:04:45.454Z,58.08
2023-05-01T22:08:45.567Z,58.27
2023-05-01T22:12:47.787Z,58.43
2023-05-01T22:16:45.710Z,58.32
2023-05-01T22:20:45.516Z,58.79
2023-05-01T22:24:45.908Z,59.26
2023-05-01T22:28:45.492Z,59.51
2023-05-01T22:32:45.703Z,59.89
2023-05-01T22:44:46.162Z,60.06
2023-05-01T22:48:45.604Z,60.19
2023-05-01T22:56:46.133Z,60.18
2023-05-01T23:00:45.839Z,60.72
2023-05-01T23:04:45.789Z,60.75
2023-05-01T23:08:45.762Z,61.00
2023-05-01T23:12:45.821Z,61.38
2023-05-01T23:16:45.644Z,61.50
2023-05-01T23:20:45.951Z,61.55
2023-05-01T23:28:45.778Z,61.87
2023-05-01T23:32:45.846Z,62.24
2023-05-01T23:36:46.335Z,62.52
2023-05-01T23:40:45.965Z,62.75
2023-05-01T23:44:46.707Z,63.00
2023-05-01T23:48:45.767Z,62.89
2023-05-01T23:52:46.446Z,62.94
2023-05-01T23:56:45.778Z,63.30
